Time;durP1;ratioP1;P1;durP2;ratioP2;P2;SDS_P1;SDS_P2;PMS_P1;PMS_P2;Temp;Humidity;BMP_temperature;BMP_pressure;BME280_temperature;BME280_humidity;BME280_pressure;Samples;Min_cycle;Max_cycle;Signal;HPM_P1;HPM_P2
2022/12/05 00:02:03;;;;;;;40.88;20.75;;;;;;;1.57;100.00;101688.31;5048485;28;20057;-68
2022/12/05 00:04:29;;;;;;;36.80;17.52;;;;;;;1.47;100.00;101668.97;5049696;28;20408;-68
2022/12/05 00:06:54;;;;;;;43.55;23.80;;;;;;;1.56;100.00;101686.66;5049981;28;20053;-68
2022/12/05 00:09:20;;;;;;;36.58;20.70;;;;;;;1.59;100.00;101694.28;5048372;28;20127;-68
2022/12/05 00:11:45;;;;;;;42.90;20.33;;;;;;;1.61;100.00;101689.75;5048325;28;20068;-69
2022/12/05 00:14:12;;;;;;;39.50;21.15;;;;;;;1.57;100.00;101682.22;5049378;28;20044;-68
2022/12/05 00:16:40;;;;;;;41.00;19.73;;;;;;;1.63;100.00;101695.75;5048760;28;20057;-69
2022/12/05 00:19:07;;;;;;;41.33;21.67;;;;;;;1.64;100.00;101684.25;5049541;28;20082;-68
2022/12/05 00:21:35;;;;;;;37.97;21.67;;;;;;;1.64;100.00;101692.16;5049665;28;20036;-71
2022/12/05 00:24:04;;;;;;;37.60;18.73;;;;;;;1.65;100.00;101692.97;5049174;28;20033;-71
2022/12/05 00:26:31;;;;;;;40.65;20.20;;;;;;;1.67;100.00;101684.03;5049453;28;20032;-72
2022/12/05 00:28:57;;;;;;;36.15;18.08;;;;;;;1.68;100.00;101680.47;5049580;28;20025;-71
2022/12/05 00:31:24;;;;;;;39.38;20.10;;;;;;;1.72;100.00;101683.69;5049386;28;20025;-72
2022/12/05 00:33:50;;;;;;;40.72;20.63;;;;;;;1.70;100.00;101677.69;5049394;28;20041;-72
2022/12/05 00:36:22;;;;;;;43.30;23.67;;;;;;;1.67;100.00;101670.03;5049395;28;20033;-72
2022/12/05 00:38:47;;;;;;;;;;;;;;;1.72;100.00;101673.16;5049086;28;20037;-72
2022/12/05 00:41:16;;;;;;;41.33;22.27;;;;;;;1.70;100.00;101665.41;5055725;28;19924;-72
2022/12/05 00:43:41;;;;;;;40.47;21.02;;;;;;;1.72;100.00;101666.09;5051377;28;20021;-72
2022/12/05 00:46:09;;;;;;;43.33;19.08;;;;;;;1.74;100.00;101673.88;5052097;28;20032;-71
2022/12/05 00:48:38;;;;;;;41.05;21.30;;;;;;;1.73;100.00;101667.78;5053024;28;20028;-72
2022/12/05 00:51:28;;;;;;;41.28;23.75;;;;;;;1.77;100.00;101672.81;5053085;28;20037;-72
2022/12/05 00:53:56;;;;;;;44.28;24.48;;;;;;;1.75;100.00;101673.75;5053022;28;20387;-71
2022/12/05 00:56:24;;;;;;;40.05;21.33;;;;;;;1.77;100.00;101673.63;5053016;28;20041;-71
2022/12/05 00:58:52;;;;;;;37.95;21.13;;;;;;;1.77;100.00;101673.63;5053036;28;20039;-72
2022/12/05 01:01:23;;;;;;;36.55;19.20;;;;;;;1.77;100.00;101668.38;5052934;28;20057;-72
2022/12/05 01:03:50;;;;;;;;;;;;;;;1.79;100.00;101681.44;5053585;28;20390;-72
2022/12/05 01:06:16;;;;;;;37.03;19.00;;;;;;;1.80;100.00;101677.81;5052878;28;19912;-72
2022/12/05 01:08:41;;;;;;;40.78;20.20;;;;;;;1.80;100.00;101669.94;5052899;28;20091;-71
2022/12/05 01:11:08;;;;;;;38.33;20.85;;;;;;;1.81;100.00;101679.50;5052476;28;20047;-72
2022/12/05 01:13:34;;;;;;;35.60;17.55;;;;;;;1.81;100.00;101684.75;5052502;28;20479;-71
2022/12/05 01:16:01;;;;;;;36.95;18.05;;;;;;;1.81;100.00;101679.50;5051181;28;20056;-71
2022/12/05 01:18:28;;;;;;;34.35;18.25;;;;;;;1.83;100.00;101682.84;5052272;28;20037;-71
2022/12/05 01:20:54;;;;;;;36.10;19.08;;;;;;;1.84;100.00;101684.53;5052498;28;20369;-72
2022/12/05 01:23:20;;;;;;;40.00;21.77;;;;;;;1.82;100.00;101687.28;5052459;28;20048;-71
2022/12/05 01:25:47;;;;;;;37.25;20.33;;;;;;;1.71;100.00;101666.25;5051993;28;20036;-71
2022/12/05 01:28:14;;;;;;;41.33;21.95;;;;;;;1.84;100.00;101690.63;5052368;28;20090;-71
2022/12/05 01:30:43;;;;;;;37.42;19.73;;;;;;;1.85;100.00;101689.66;5052138;28;20195;-71
2022/12/05 01:33:09;;;;;;;38.60;21.25;;;;;;;1.86;100.00;101695.75;5052276;28;20032;-72
2022/12/05 01:35:36;;;;;;;34.53;18.88;;;;;;;1.85;100.00;101688.81;5052411;28;20067;-72
2022/12/05 01:38:03;;;;;;;40.97;20.92;;;;;;;1.87;100.00;101686.91;5052323;28;20035;-71
2022/12/05 01:40:29;;;;;;;38.80;19.45;;;;;;;1.86;100.00;101687.84;5050178;28;21035;-71
2022/12/05 01:42:54;;;;;;;33.53;18.98;;;;;;;1.86;100.00;101690.50;5052165;28;20036;-71
2022/12/05 01:45:45;;;;;;;37.15;19.20;;;;;;;1.91;100.00;101699.72;5050934;28;20033;-72
2022/12/05 01:48:20;;;;;;;37.17;18.73;;;;;;;1.91;100.00;101712.88;5052117;28;20049;-71
2022/12/05 01:50:48;;;;;;;37.60;18.20;;;;;;;1.95;100.00;101705.56;5052061;28;20040;-71
2022/12/05 01:53:14;;;;;;;37.78;19.70;;;;;;;1.93;100.00;101704.84;5051921;28;20032;-71
2022/12/05 01:55:40;;;;;;;36.60;18.92;;;;;;;1.93;100.00;101702.22;5051469;28;20033;-71
2022/12/05 01:58:08;;;;;;;36.30;18.48;;;;;;;1.88;100.00;101699.09;5051881;28;20029;-71
2022/12/05 02:00:33;;;;;;;42.90;21.23;;;;;;;1.91;100.00;101710.25;5051951;28;20028;-71
2022/12/05 02:03:04;;;;;;;40.80;19.83;;;;;;;1.93;100.00;101710.94;5051832;28;20032;-71
2022/12/05 02:05:32;;;;;;;37.88;21.00;;;;;;;1.92;100.00;101713.72;5051866;28;20078;-71
2022/12/05 02:08:00;;;;;;;40.03;20.65;;;;;;;1.92;100.00;101704.00;5051703;28;20071;-71
2022/12/05 02:10:29;;;;;;;38.70;19.83;;;;;;;1.94;100.00;101710.00;5051597;28;20111;-71
2022/12/05 02:13:07;;;;;;;42.08;20.65;;;;;;;1.94;100.00;101715.25;5050184;28;20127;-71
2022/12/05 02:15:51;;;;;;;37.75;18.52;;;;;;;1.94;100.00;101709.16;5051496;28;20063;-71
2022/12/05 02:18:34;;;;;;;39.50;20.27;;;;;;;1.95;100.00;101711.66;5051558;28;20036;-71
2022/12/05 02:21:14;;;;;;;37.58;19.50;;;;;;;1.96;100.00;101715.13;5050913;28;20033;-72
2022/12/05 02:24:14;;;;;;;36.80;19.30;;;;;;;1.97;100.00;101719.44;5051453;28;20393;-71
2022/12/05 02:27:20;;;;;;;38.05;20.33;;;;;;;1.98;100.00;101715.84;5050537;28;20033;-71
2022/12/05 02:29:55;;;;;;;39.63;20.00;;;;;;;1.97;100.00;101711.56;5045173;28;20041;-71
2022/12/05 02:32:37;;;;;;;44.10;22.13;;;;;;;1.97;100.00;101715.03;5051190;28;20063;-71
2022/12/05 02:35:31;;;;;;;41.63;20.92;;;;;;;1.93;100.00;101703.06;5051175;28;20384;-71
2022/12/05 02:38:24;;;;;;;41.83;17.88;;;;;;;1.97;100.00;101706.28;5051247;28;20025;-71
2022/12/05 02:41:01;;;;;;;37.60;20.13;;;;;;;1.99;100.00;101707.00;5051086;28;20041;-71
2022/12/05 02:43:36;;;;;;;36.22;20.20;;;;;;;1.96;100.00;101709.88;5050542;28;20472;-71
2022/12/05 02:46:08;;;;;;;42.13;24.40;;;;;;;1.93;100.00;101700.41;5050924;28;20021;-71
2022/12/05 02:48:36;;;;;;;39.30;20.23;;;;;;;1.90;100.00;101705.91;5050852;28;20108;-71
2022/12/05 02:51:04;;;;;;;39.38;21.27;;;;;;;1.92;100.00;101709.28;5050819;28;20028;-71
2022/12/05 02:53:30;;;;;;;41.55;21.27;;;;;;;1.95;100.00;101710.84;5050874;28;20538;-71
2022/12/05 02:55:56;;;;;;;42.38;20.00;;;;;;;1.95;100.00;101716.94;5050780;28;20033;-71
2022/12/05 02:58:35;;;;;;;39.95;22.27;;;;;;;1.96;100.00;101717.75;5069998;28;20059;-71
2022/12/05 03:01:03;;;;;;;43.40;22.58;;;;;;;1.95;100.00;101716.09;5069722;28;20034;-71
2022/12/05 03:03:29;;;;;;;38.78;18.88;;;;;;;1.93;100.00;101712.75;5069804;28;20021;-71
2022/12/05 03:06:01;;;;;;;48.67;26.30;;;;;;;1.98;100.00;101713.22;5069352;28;20056;-71
2022/12/05 03:08:33;;;;;;;35.17;20.77;;;;;;;1.96;100.00;101713.34;5049915;28;20039;-71
2022/12/05 03:11:02;;;;;;;41.22;19.80;;;;;;;1.97;100.00;101725.53;5050466;28;20043;-71
2022/12/05 03:13:34;;;;;;;34.67;18.67;;;;;;;2.03;100.00;101716.34;5050383;28;20021;-71
2022/12/05 03:16:09;;;;;;;48.40;25.88;;;;;;;1.95;100.00;101710.84;5050293;28;20060;-71
2022/12/05 03:18:39;;;;;;;45.05;22.05;;;;;;;1.90;100.00;101707.72;5050415;28;20492;-71
2022/12/05 03:21:24;;;;;;;39.88;19.33;;;;;;;1.97;100.00;101714.19;5049084;28;20055;-71
2022/12/05 03:23:55;;;;;;;42.53;20.45;;;;;;;1.93;100.00;101712.75;5049674;28;20116;-71
2022/12/05 03:26:35;;;;;;;42.83;21.17;;;;;;;1.91;100.00;101707.63;5048806;28;20028;-71
2022/12/05 03:29:19;;;;;;;44.22;20.20;;;;;;;1.82;100.00;101694.34;5050219;28;20078;-68
2022/12/05 03:31:50;;;;;;;43.35;22.30;;;;;;;1.87;100.00;101708.78;5049507;28;20032;-68
2022/12/05 03:34:34;;;;;;;38.90;21.73;;;;;;;1.84;100.00;101706.41;5050153;28;20029;-68
2022/12/05 03:37:04;;;;;;;41.30;21.00;;;;;;;1.83;100.00;101704.72;5050064;28;20472;-68
2022/12/05 03:39:32;;;;;;;40.65;19.60;;;;;;;1.78;100.00;101698.13;5049908;28;20040;-68
2022/12/05 03:42:15;;;;;;;43.63;21.65;;;;;;;1.81;100.00;101704.03;5050242;28;20111;-68
2022/12/05 03:44:40;;;;;;;45.28;22.73;;;;;;;1.83;100.00;101709.16;5049385;28;20068;-68
2022/12/05 03:47:10;;;;;;;35.10;17.42;;;;;;;1.82;100.00;101703.06;5050020;28;20060;-68
2022/12/05 03:49:38;;;;;;;41.83;20.92;;;;;;;1.80;100.00;101701.50;5049886;28;20447;-68
2022/12/05 03:52:15;;;;;;;40.13;21.02;;;;;;;1.82;100.00;101707.47;5049850;28;20029;-68
2022/12/05 03:54:44;;;;;;;42.75;20.65;;;;;;;1.75;100.00;101696.59;5049775;28;20066;-68
2022/12/05 03:57:22;;;;;;;38.25;18.77;;;;;;;1.80;100.00;101706.75;5068727;28;20479;-68
2022/12/05 04:00:01;;;;;;;43.25;23.52;;;;;;;1.78;100.00;101704.22;5069005;28;20034;-68
2022/12/05 04:02:34;;;;;;;43.17;23.33;;;;;;;1.77;100.00;101714.88;5068862;28;20039;-68
2022/12/05 04:05:17;;;;;;;42.92;22.33;;;;;;;1.79;100.00;101712.97;5069165;28;20024;-68
2022/12/05 04:07:45;;;;;;;42.03;19.60;;;;;;;1.77;100.00;101712.25;5068929;28;20028;-68
2022/12/05 04:10:15;;;;;;;39.10;20.35;;;;;;;1.74;100.00;101702.81;5068666;28;20032;-68
2022/12/05 04:12:44;;;;;;;40.53;22.85;;;;;;;1.75;100.00;101707.09;5068657;28;20368;-68
2022/12/05 04:15:16;;;;;;;47.28;24.48;;;;;;;1.72;100.00;101705.53;5068776;28;20029;-68
2022/12/05 04:17:54;;;;;;;47.30;23.42;;;;;;;1.71;100.00;101705.69;5069232;28;20053;-68
2022/12/05 04:23:07;;;;;;;39.25;16.65;;;;;;;1.75;100.00;101715.00;5071097;28;20047;-68
2022/12/05 04:25:45;;;;;;;38.53;21.45;;;;;;;1.75;100.00;101715.81;5053004;28;20024;-68
2022/12/05 04:28:33;;;;;;;38.85;18.83;;;;;;;1.78;100.00;101721.81;5055301;28;20029;-68
2022/12/05 04:31:15;;;;;;;37.83;19.92;;;;;;;1.77;100.00;101725.41;5053440;28;20024;-68
2022/12/05 04:34:04;;;;;;;39.70;20.90;;;;;;;1.79;100.00;101724.34;5053255;28;20037;-68
2022/12/05 04:36:37;;;;;;;41.83;21.40;;;;;;;1.75;100.00;101720.25;5053536;28;20025;-68
2022/12/05 04:39:08;;;;;;;39.63;20.08;;;;;;;1.80;100.00;101725.16;5052965;28;20388;-68
2022/12/05 04:41:47;;;;;;;41.90;21.48;;;;;;;1.82;100.00;101725.88;5053281;28;20036;-68
2022/12/05 04:44:18;;;;;;;40.28;20.52;;;;;;;1.82;100.00;101728.53;5053217;28;20147;-68
2022/12/05 04:46:44;;;;;;;45.47;20.80;;;;;;;1.84;100.00;101737.13;5052559;28;20082;-68
2022/12/05 04:49:15;;;;;;;39.40;21.42;;;;;;;1.84;100.00;101737.13;5053357;28;20028;-68
2022/12/05 04:51:42;;;;;;;47.65;21.88;;;;;;;1.80;100.00;101722.53;5053081;28;20028;-68
2022/12/05 04:54:22;;;;;;;37.45;18.35;;;;;;;1.81;100.00;101725.06;5051709;28;20024;-68
2022/12/05 04:56:52;;;;;;;37.10;20.13;;;;;;;1.85;100.00;101723.84;5053008;28;20057;-68
2022/12/05 04:59:18;;;;;;;44.55;20.67;;;;;;;1.86;100.00;101719.41;5052962;28;20540;-68
2022/12/05 05:01:54;;;;;;;38.30;19.15;;;;;;;1.82;100.00;101718.00;5053064;28;20144;-69
2022/12/05 05:04:25;;;;;;;43.58;21.83;;;;;;;1.83;100.00;101715.22;5052688;28;20055;-68
2022/12/05 05:06:50;;;;;;;43.42;23.20;;;;;;;1.85;100.00;101725.66;5052902;28;20021;-68
2022/12/05 05:09:16;;;;;;;39.63;21.67;;;;;;;1.86;100.00;101728.19;5052837;28;20387;-68
2022/12/05 05:11:41;;;;;;;36.35;19.45;;;;;;;1.83;100.00;101725.75;5052775;28;20401;-68
2022/12/05 05:14:06;;;;;;;38.70;19.83;;;;;;;1.89;100.00;101735.00;5052644;28;20472;-69
2022/12/05 05:16:35;;;;;;;38.88;18.67;;;;;;;1.85;100.00;101725.66;5052581;28;20073;-69
2022/12/05 05:19:01;;;;;;;40.92;20.33;;;;;;;1.88;100.00;101734.13;5052513;28;20072;-69
2022/12/05 05:21:29;;;;;;;35.25;18.90;;;;;;;1.89;100.00;101737.63;5052492;28;20031;-69
2022/12/05 05:23:55;;;;;;;35.25;17.17;;;;;;;1.90;100.00;101742.75;5052496;28;20937;-70
2022/12/05 05:26:22;;;;;;;39.38;21.13;;;;;;;1.89;100.00;101735.00;5051881;28;20063;-70
2022/12/05 05:28:48;;;;;;;37.38;20.08;;;;;;;1.93;100.00;101744.31;5052259;28;20098;-70
2022/12/05 05:31:13;;;;;;;37.97;18.98;;;;;;;1.92;100.00;101734.75;5051621;28;20471;-68
2022/12/05 05:33:39;;;;;;;33.58;19.13;;;;;;;1.96;100.00;101736.16;5033914;28;20039;-68
2022/12/05 05:36:08;;;;;;;37.53;20.67;;;;;;;1.99;100.00;101733.28;5052314;28;20033;-68
2022/12/05 05:38:45;;;;;;;38.65;20.67;;;;;;;1.97;100.00;101729.97;5052098;28;20123;-69
2022/12/05 05:41:25;;;;;;;40.65;18.48;;;;;;;2.01;100.00;101741.09;5052570;28;20063;-69
2022/12/05 05:43:51;;;;;;;35.03;18.20;;;;;;;2.01;100.00;101736.66;5071531;28;20024;-69
2022/12/05 05:46:18;;;;;;;34.33;18.83;;;;;;;2.04;100.00;101736.41;5071653;28;20044;-69
2022/12/05 05:48:44;;;;;;;34.65;19.13;;;;;;;2.05;100.00;101738.09;5070665;28;20029;-69
2022/12/05 05:51:11;;;;;;;35.50;18.58;;;;;;;2.07;100.00;101732.69;5071238;28;20036;-69
2022/12/05 05:53:36;;;;;;;33.85;16.80;;;;;;;2.04;100.00;101731.16;5070910;28;20028;-69
2022/12/05 05:56:03;;;;;;;37.10;17.35;;;;;;;2.08;100.00;101748.38;5070993;28;20459;-69
2022/12/05 05:58:29;;;;;;;42.75;22.10;;;;;;;2.08;100.00;101742.28;5070796;28;20035;-69
2022/12/05 06:01:02;;;;;;;33.85;18.45;;;;;;;2.10;100.00;101737.75;5070792;28;20028;-68
2022/12/05 06:03:27;;;;;;;38.38;18.05;;;;;;;2.13;100.00;101745.41;5070927;28;20024;-69
2022/12/05 06:05:59;;;;;;;35.63;19.05;;;;;;;2.13;100.00;101737.50;5070776;28;20425;-68
2022/12/05 06:08:28;;;;;;;33.00;18.10;;;;;;;2.12;100.00;101743.72;5070764;28;20391;-68
2022/12/05 06:10:53;;;;;;;35.67;17.70;;;;;;;2.15;100.00;101746.97;5069225;28;20411;-68
2022/12/05 06:13:19;;;;;;;34.80;17.70;;;;;;;2.16;100.00;101747.78;5070527;28;20047;-68
2022/12/05 06:15:44;;;;;;;31.55;14.52;;;;;;;2.17;100.00;101746.81;5070558;28;20036;-68
2022/12/05 06:18:09;;;;;;;37.15;19.15;;;;;;;2.16;100.00;101748.63;5070541;28;20053;-68
2022/12/05 06:20:35;;;;;;;34.72;19.25;;;;;;;2.19;100.00;101750.19;5070700;28;20445;-68
2022/12/05 06:23:00;;;;;;;35.88;17.95;;;;;;;2.15;100.00;101752.22;5069163;28;20501;-68
2022/12/05 06:25:25;;;;;;;32.53;16.60;;;;;;;2.18;100.00;101762.50;5070369;28;20064;-68
2022/12/05 06:27:51;;;;;;;35.28;18.23;;;;;;;2.16;100.00;101751.25;5069962;28;20105;-68
2022/12/05 06:30:16;;;;;;;36.53;17.23;;;;;;;2.10;100.00;101738.59;5070280;28;20024;-68
2022/12/05 06:32:42;;;;;;;31.42;17.67;;;;;;;2.14;100.00;101747.91;5070130;28;20464;-68
2022/12/05 06:35:14;;;;;;;34.85;16.73;;;;;;;2.14;100.00;101754.97;5068858;28;20491;-68
2022/12/05 06:37:43;;;;;;;38.25;19.92;;;;;;;2.18;100.00;101762.50;5070386;28;20431;-68
2022/12/05 06:40:11;;;;;;;33.88;15.98;;;;;;;2.19;100.00;101763.34;5070701;28;20955;-68
2022/12/05 06:42:36;;;;;;;30.45;16.08;;;;;;;2.15;100.00;101760.13;5068644;28;20112;-68
2022/12/05 06:45:03;;;;;;;34.00;16.67;;;;;;;2.18;100.00;101764.31;5069949;28;20131;-68
2022/12/05 06:47:28;;;;;;;32.97;17.15;;;;;;;2.18;100.00;101759.03;5069881;28;20039;-68
2022/12/05 06:49:53;;;;;;;29.58;13.85;;;;;;;2.18;100.00;101754.63;5057877;28;20060;-68
2022/12/05 06:52:19;;;;;;;35.13;17.33;;;;;;;2.15;100.00;101751.38;5055824;28;20035;-68
2022/12/05 06:54:45;;;;;;;35.40;18.60;;;;;;;2.15;100.00;101754.03;5069685;28;20099;-68
2022/12/05 06:57:11;;;;;;;32.78;16.80;;;;;;;2.18;100.00;101757.25;5070031;28;20038;-68
2022/12/05 06:59:36;;;;;;;31.40;16.58;;;;;;;2.21;100.00;101768.50;5069774;28;20032;-68
2022/12/05 07:02:02;;;;;;;29.98;15.85;;;;;;;2.21;100.00;101764.06;5050410;28;20488;-68
2022/12/05 07:04:27;;;;;;;28.52;14.40;;;;;;;2.21;100.00;101771.97;5050537;28;20430;-68
2022/12/05 07:06:54;;;;;;;29.38;15.27;;;;;;;2.21;100.00;101773.75;5065305;28;20032;-68
2022/12/05 07:09:44;;;;;;;27.77;13.93;;;;;;;2.22;100.00;101773.63;5069649;28;20036;-68
2022/12/05 07:12:07;;;;;;;32.95;16.63;;;;;;;2.19;100.00;101776.50;5069213;28;20067;-68
2022/12/05 07:14:33;;;;;;;28.67;15.77;;;;;;;2.23;100.00;101780.56;5069614;28;20033;-68
2022/12/05 07:16:58;;;;;;;31.65;14.75;;;;;;;2.21;100.00;101776.38;5069364;28;20136;-68
2022/12/05 07:19:23;;;;;;;33.88;17.25;;;;;;;2.21;100.00;101786.91;5069574;28;20054;-68
2022/12/05 07:21:49;;;;;;;30.05;15.40;;;;;;;2.22;100.00;101786.78;5069524;28;20123;-68
2022/12/05 07:24:14;;;;;;;34.17;16.73;;;;;;;2.23;100.00;101782.34;5069460;28;20047;-68
2022/12/05 07:26:40;;;;;;;30.80;14.63;;;;;;;2.26;100.00;101792.66;5067424;28;20032;-68
2022/12/05 07:29:05;;;;;;;33.78;16.88;;;;;;;2.30;100.00;101799.34;5067272;28;20035;-68
2022/12/05 07:31:32;;;;;;;29.73;15.25;;;;;;;2.25;100.00;101793.59;5069103;28;20028;-68
2022/12/05 07:33:58;;;;;;;33.30;16.73;;;;;;;2.26;100.00;101788.22;5069231;28;20028;-68
2022/12/05 07:36:24;;;;;;;32.67;13.43;;;;;;;2.32;100.00;101802.69;5068831;28;20028;-68
2022/12/05 07:38:55;;;;;;;30.13;14.60;;;;;;;2.32;100.00;101802.69;5069206;28;20087;-68
2022/12/05 07:41:26;;;;;;;28.55;12.90;;;;;;;2.34;100.00;101798.16;5057439;28;20055;-68
2022/12/05 07:43:54;;;;;;;28.10;13.52;;;;;;;2.34;100.00;101800.78;5054608;28;20109;-68
2022/12/05 07:46:20;;;;;;;33.22;15.00;;;;;;;2.35;100.00;101800.66;5054466;28;20020;-69
2022/12/05 07:48:47;;;;;;;32.05;15.38;;;;;;;2.35;100.00;101805.09;5053832;28;20074;-69
2022/12/05 07:51:12;;;;;;;28.83;13.70;;;;;;;2.38;100.00;101810.13;5053542;28;20047;-69
2022/12/05 07:53:40;;;;;;;34.30;17.05;;;;;;;2.40;100.00;101814.31;5055484;28;20526;-67
2022/12/05 07:56:08;;;;;;;29.48;15.32;;;;;;;2.41;100.00;101804.59;5069042;28;20028;-68
2022/12/05 07:58:34;;;;;;;35.35;16.08;;;;;;;2.37;100.00;101798.75;5067744;28;20506;-68
2022/12/05 08:01:12;;;;;;;28.30;14.60;;;;;;;2.44;100.00;101811.41;5068074;28;20031;-68
2022/12/05 08:03:38;;;;;;;29.70;14.05;;;;;;;2.42;100.00;101801.03;5068876;28;20016;-68
2022/12/05 08:06:05;;;;;;;31.35;16.65;;;;;;;2.45;100.00;101813.94;5068898;28;20382;-66
2022/12/05 08:08:30;;;;;;;29.65;15.52;;;;;;;2.45;100.00;101824.47;5068587;28;20118;-68
2022/12/05 08:11:01;;;;;;;29.77;15.07;;;;;;;2.48;100.00;101828.66;5069141;28;20406;-68
2022/12/05 08:13:28;;;;;;;33.13;14.30;;;;;;;2.50;100.00;101826.75;5068767;28;20032;-68
2022/12/05 08:15:53;;;;;;;30.77;15.07;;;;;;;2.46;100.00;101823.50;5068772;28;20127;-68
2022/12/05 08:18:18;;;;;;;31.67;15.07;;;;;;;2.54;100.00;101831.69;5068696;28;20140;-68
2022/12/05 08:20:44;;;;;;;28.73;14.65;;;;;;;2.55;100.00;101832.50;5067473;28;20060;-69
2022/12/05 08:23:09;;;;;;;31.48;15.23;;;;;;;2.56;100.00;101835.00;5068754;28;20111;-69
2022/12/05 08:25:34;;;;;;;28.33;14.40;;;;;;;2.56;100.00;101837.63;5068945;28;20029;-69
2022/12/05 08:27:59;;;;;;;31.65;14.93;;;;;;;2.56;100.00;101842.91;5068698;28;20036;-69
2022/12/05 08:30:25;;;;;;;28.58;14.80;;;;;;;2.58;100.00;101842.78;5068770;28;20074;-69
2022/12/05 08:32:50;;;;;;;29.45;14.85;;;;;;;2.61;100.00;101846.00;5068442;28;20028;-69
2022/12/05 08:35:16;;;;;;;29.90;16.23;;;;;;;2.62;100.00;101845.06;5068707;28;20024;-70
2022/12/05 08:37:41;;;;;;;28.85;14.20;;;;;;;2.64;100.00;101843.13;5054141;28;20068;-68
2022/12/05 08:40:07;;;;;;;28.40;14.85;;;;;;;2.66;100.00;101847.47;5051692;28;20036;-73
2022/12/05 08:42:32;;;;;;;26.77;14.00;;;;;;;2.67;100.00;101857.88;5054835;28;20388;-67
2022/12/05 08:44:58;;;;;;;29.17;14.13;;;;;;;2.67;100.00;101852.59;5053517;28;20050;-77
2022/12/05 08:47:23;;;;;;;29.42;13.15;;;;;;;2.67;100.00;101849.13;5052203;28;20067;-71
2022/12/05 08:49:48;;;;;;;28.80;14.20;;;;;;;2.67;100.00;101838.59;5054451;28;20055;-69
2022/12/05 08:52:14;;;;;;;29.58;12.63;;;;;;;2.68;100.00;101848.19;5053327;28;20067;-70
2022/12/05 08:54:39;;;;;;;30.75;15.18;;;;;;;2.67;100.00;101846.50;5053676;28;20037;-72
2022/12/05 08:57:04;;;;;;;26.90;14.45;;;;;;;2.72;100.00;101852.25;5054214;28;20075;-69
2022/12/05 08:59:30;;;;;;;27.73;13.77;;;;;;;2.72;100.00;101850.44;5054148;28;20488;-69
2022/12/05 09:01:55;;;;;;;29.48;14.68;;;;;;;2.74;100.00;101855.59;5053298;28;20453;-67
2022/12/05 09:04:20;;;;;;;25.58;12.43;;;;;;;2.76;100.00;101861.59;5053845;28;21228;-70
2022/12/05 09:06:46;;;;;;;29.42;14.48;;;;;;;2.76;100.00;101864.22;5056927;28;20033;-68
2022/12/05 09:09:11;;;;;;;31.40;14.50;;;;;;;2.76;100.00;101864.22;5055262;28;20043;-71
2022/12/05 09:11:42;;;;;;;30.63;15.27;;;;;;;2.75;100.00;101871.28;5057082;28;20029;-67
2022/12/05 09:14:08;;;;;;;30.13;13.23;;;;;;;2.72;100.00;101870.69;5057939;28;20414;-67
2022/12/05 09:16:36;;;;;;;30.23;13.82;;;;;;;2.72;100.00;101876.78;5056318;28;20024;-67
2022/12/05 09:19:01;;;;;;;27.10;12.73;;;;;;;2.63;100.00;101859.06;5057900;28;20029;-67
2022/12/05 09:21:28;;;;;;;28.20;13.93;;;;;;;2.71;100.00;101876.91;5055627;28;20073;-68
2022/12/05 09:23:54;;;;;;;27.17;12.50;;;;;;;2.71;100.00;101874.28;5056028;28;20028;-68
2022/12/05 09:26:25;;;;;;;26.98;14.13;;;;;;;2.74;100.00;101884.56;5057826;28;20028;-67
2022/12/05 09:28:51;;;;;;;26.43;14.33;;;;;;;2.74;100.00;101879.31;5063172;28;20036;-67
2022/12/05 09:31:22;;;;;;;26.58;12.55;;;;;;;2.74;100.00;101885.41;5056741;28;20480;-67
2022/12/05 09:33:48;;;;;;;25.98;11.95;;;;;;;2.74;100.00;101887.22;5056547;28;20031;-67
2022/12/05 09:36:17;;;;;;;26.73;13.27;;;;;;;2.74;100.00;101895.09;5055181;28;20044;-67
2022/12/05 09:38:42;;;;;;;25.17;11.82;;;;;;;2.73;100.00;101893.44;5056202;28;20037;-67
2022/12/05 09:44:50;;;;;;;26.52;11.35;;;;;;;2.67;100.00;101897.38;5056401;28;20061;-67
2022/12/05 09:47:42;;;;;;;24.05;11.10;;;;;;;2.68;100.00;101890.34;5035040;28;20036;-69
2022/12/05 09:50:47;;;;;;;24.27;10.98;;;;;;;2.63;100.00;101894.16;5056261;28;20028;-67
2022/12/05 09:53:33;;;;;;;19.92;8.20;;;;;;;2.56;100.00;101903.47;5056533;28;20016;-67
2022/12/05 09:56:11;;;;;;;17.15;7.75;;;;;;;2.55;100.00;101901.81;5054900;28;20032;-66
2022/12/05 09:58:39;;;;;;;20.88;9.88;;;;;;;2.55;100.00;101898.34;5056182;28;20108;-67
2022/12/05 10:01:29;;;;;;;17.67;8.38;;;;;;;2.57;100.00;101902.53;5057527;28;20090;-67
2022/12/05 10:04:23;;;;;;;15.60;6.75;;;;;;;2.57;100.00;101899.91;5056699;28;20039;-70
2022/12/05 10:07:00;;;;;;;16.30;6.20;;;;;;;2.57;100.00;101907.81;5051385;28;20040;-67
2022/12/05 10:09:33;;;;;;;18.42;7.57;;;;;;;2.58;100.00;101904.19;5063015;28;20029;-69
2022/12/05 10:12:42;;;;;;;16.65;8.63;;;;;;;2.59;100.00;101911.16;5051587;28;20032;-68
2022/12/05 10:15:31;;;;;;;17.55;9.13;;;;;;;2.61;100.00;101901.31;5051118;28;20460;-68
2022/12/05 10:18:13;;;;;;;16.52;7.68;;;;;;;2.64;100.00;101902.88;5051290;28;20140;-68
2022/12/05 10:20:47;;;;;;;19.08;9.57;;;;;;;2.69;100.00;101900.72;5051771;28;20047;-68
2022/12/05 10:23:24;;;;;;;17.40;7.63;;;;;;;2.74;100.00;101905.66;5051458;28;20033;-69
2022/12/05 10:25:54;;;;;;;20.00;8.07;;;;;;;2.75;100.00;101899.41;5050046;28;20033;-68
2022/12/05 10:28:36;;;;;;;15.68;7.45;;;;;;;2.73;100.00;101891.63;5051225;28;20037;-68
2022/12/05 10:31:05;;;;;;;19.10;8.50;;;;;;;2.74;100.00;101893.31;5050376;28;20033;-68
2022/12/05 10:33:37;;;;;;;18.10;9.57;;;;;;;2.74;100.00;101893.31;5050370;28;20032;-69
2022/12/05 10:36:09;;;;;;;18.33;8.02;;;;;;;2.78;100.00;101904.47;5050433;28;20107;-68
2022/12/05 10:38:34;;;;;;;18.55;9.02;;;;;;;2.78;100.00;101901.81;5070152;28;20039;-68
2022/12/05 10:41:05;;;;;;;20.55;8.43;;;;;;;2.80;100.00;101898.13;5070022;28;20033;-68
2022/12/05 10:43:33;;;;;;;20.08;8.70;;;;;;;2.87;100.00;101905.53;5070079;28;20031;-68
2022/12/05 10:46:00;;;;;;;18.67;7.50;;;;;;;2.88;100.00;101894.03;5070011;28;20033;-68
2022/12/05 10:48:26;;;;;;;14.90;7.47;;;;;;;2.85;100.00;101901.19;5070029;28;20031;-68
2022/12/05 10:50:56;;;;;;;16.23;9.32;;;;;;;2.85;100.00;101906.47;5069866;28;20033;-68
2022/12/05 10:53:39;;;;;;;15.35;6.70;;;;;;;2.86;100.00;101902.06;5070565;28;20107;-68
2022/12/05 10:56:41;;;;;;;16.50;7.60;;;;;;;2.87;100.00;101906.38;5069731;28;20368;-68
2022/12/05 10:59:10;;;;;;;15.90;7.60;;;;;;;2.86;100.00;101899.44;5050767;28;20037;-68
2022/12/05 11:01:42;;;;;;;16.02;7.18;;;;;;;2.85;100.00;101900.38;5050685;28;20021;-68
2022/12/05 11:04:22;;;;;;;13.65;6.35;;;;;;;2.83;100.00;101900.50;5050419;28;20396;-69
2022/12/05 11:07:00;;;;;;;12.38;6.68;;;;;;;2.87;100.00;101900.25;5050583;28;20072;-68
2022/12/05 11:09:35;;;;;;;16.02;8.73;;;;;;;2.83;100.00;101900.50;5069417;28;20039;-68
2022/12/05 11:12:21;;;;;;;13.20;7.07;;;;;;;2.89;100.00;101890.44;5069430;28;20518;-68
2022/12/05 11:15:00;;;;;;;15.38;6.82;;;;;;;2.93;100.00;101889.22;5068272;28;20024;-68
2022/12/05 11:17:34;;;;;;;16.00;7.47;;;;;;;3.00;100.00;101887.78;5069213;28;20027;-69
2022/12/05 11:20:01;;;;;;;17.45;8.77;;;;;;;3.03;100.00;101888.38;5069393;28;20032;-68
2022/12/05 11:22:32;;;;;;;18.17;7.88;;;;;;;3.03;100.00;101875.19;5069343;28;20024;-68
2022/12/05 11:24:58;;;;;;;14.98;7.13;;;;;;;3.05;100.00;101875.91;5069232;28;20031;-69
2022/12/05 11:27:31;;;;;;;12.95;7.38;;;;;;;3.05;100.00;101877.72;5068544;28;20032;-69
2022/12/05 11:30:00;;;;;;;14.07;6.72;;;;;;;3.01;100.00;101873.66;5068855;28;20028;-68
2022/12/05 11:32:29;;;;;;;14.40;6.13;;;;;;;3.00;100.00;101883.34;5068198;28;20028;-69
2022/12/05 11:35:17;;;;;;;14.20;6.57;;;;;;;2.98;100.00;101879.16;5068188;28;20036;-68